Time;durP1;ratioP1;P1;durP2;ratioP2;P2;SDS_P1;SDS_P2;PMS_P1;PMS_P2;Temp;Humidity;BMP_temperature;BMP_pressure;BME280_temperature;BME280_humidity;BME280_pressure;Samples;Min_cycle;Max_cycle;Signal;HPM_P1;HPM_P2
2024/04/19 00:02:29;;;;;;;16.67;11.07;;;3.10;55.60;;;;;;5126310;27;20001;-82
2024/04/19 00:05:45;;;;;;;13.98;10.35;;;3.10;99.90;;;;;;5121540;27;20037;-82
2024/04/19 00:09:06;;;;;;;14.93;10.30;;;3.00;99.90;;;;;;5120806;27;20020;-83
2024/04/19 00:11:55;;;;;;;15.65;11.07;;;3.00;99.90;;;;;;5117370;27;20012;-81
2024/04/19 00:14:56;;;;;;;15.00;11.02;;;3.00;99.90;;;;;;5125684;27;20013;-84
2024/04/19 00:18:06;;;;;;;16.20;10.73;;;3.00;99.90;;;;;;5136771;27;20480;-81
2024/04/19 00:21:11;;;;;;;15.40;10.55;;;3.00;99.90;;;;;;5134099;27;20009;-82
2024/04/19 00:24:29;;;;;;;15.73;10.48;;;3.00;99.90;;;;;;5111722;27;20022;-82
2024/04/19 00:27:42;;;;;;;14.23;9.95;;;3.00;99.90;;;;;;5131338;27;20006;-81
2024/04/19 00:37:05;;;;;;;15.35;10.63;;;3.10;99.90;;;;;;5131369;27;20013;-83
2024/04/19 00:40:41;;;;;;;19.20;10.88;;;3.20;99.90;;;;;;5124465;27;20009;-81
2024/04/19 00:44:25;;;;;;;14.45;10.57;;;3.20;99.90;;;;;;5122192;27;20024;-83
2024/04/19 00:47:37;;;;;;;16.63;10.82;;;3.10;99.90;;;;;;5114609;27;21616;-82
2024/04/19 00:51:08;;;;;;;20.05;11.18;;;3.10;99.90;;;;;;5107683;27;20088;-82
2024/04/19 00:54:08;;;;;;;14.52;9.98;;;3.10;99.90;;;;;;5118093;27;20010;-83
2024/04/19 00:57:09;;;;;;;14.88;10.77;;;3.10;99.90;;;;;;5126130;27;20061;-81
2024/04/19 01:00:52;;;;;;;16.63;10.95;;;3.00;99.90;;;;;;5164472;27;20085;-83
2024/04/19 01:08:17;;;;;;;15.60;10.07;;;3.10;99.90;;;;;;5132679;27;20020;-82
2024/04/19 01:11:57;;;;;;;13.10;9.70;;;3.10;99.90;;;;;;5027082;28;20015;-80
2024/04/19 01:15:01;;;;;;;14.02;10.10;;;3.20;99.90;;;;;;5076285;27;20012;-84
2024/04/19 01:18:00;;;;;;;14.88;10.25;;;3.20;99.90;;;;;;5149429;27;20079;-82
2024/04/19 01:21:11;;;;;;;17.00;11.02;;;3.30;99.90;;;;;;5089181;27;20016;-83
2024/04/19 01:24:44;;;;;;;15.48;10.05;;;3.20;99.90;;;;;;5076458;27;20009;-83
2024/04/19 01:30:56;;;;;;;21.52;10.63;;;3.00;99.90;;;;;;5082679;27;20304;-82
2024/04/19 01:34:18;;;;;;;16.52;11.05;;;3.10;99.90;;;;;;5098407;27;20017;-82
2024/04/19 01:37:29;;;;;;;15.63;11.07;;;3.00;99.90;;;;;;5065871;27;20478;-83
2024/04/19 01:40:54;;;;;;;21.80;12.05;;;3.00;99.90;;;;;;5089474;27;20017;-83
2024/04/19 01:44:10;;;;;;;19.80;12.07;;;3.00;99.90;;;;;;5105717;27;20151;-82
2024/04/19 01:47:06;;;;;;;19.95;12.20;;;2.90;99.90;;;;;;5088656;27;20091;-83
2024/04/19 01:50:02;;;;;;;16.90;11.38;;;2.90;99.90;;;;;;5100583;27;20081;-81
2024/04/19 01:53:12;;;;;;;17.75;11.20;;;2.90;99.90;;;;;;5120471;27;20061;-83
2024/04/19 01:56:17;;;;;;;20.13;12.18;;;2.80;99.90;;;;;;5128964;27;20029;-81
2024/04/19 02:04:37;;;;;;;25.67;14.38;;;2.80;99.90;;;;;;5180530;22;20442;-81
2024/04/19 02:07:35;;;;;;;21.95;14.35;;;2.80;99.90;;;;;;5130910;27;20034;-83
2024/04/19 02:10:39;;;;;;;19.60;13.02;;;2.70;99.90;;;;;;5092398;27;20112;-82
2024/04/19 02:13:40;;;;;;;23.88;14.07;;;2.70;99.90;;;;;;5096517;27;20021;-83
2024/04/19 02:16:35;;;;;;;22.10;13.75;;;2.80;99.90;;;;;;5115971;27;20604;-83
2024/04/19 02:19:39;;;;;;;23.25;13.60;;;2.70;99.90;;;;;;5095191;27;20009;-81
2024/04/19 02:23:01;;;;;;;26.30;14.18;;;2.80;99.90;;;;;;5099841;27;20050;-82
2024/04/19 02:26:34;;;;;;;;;;;;;;;;;;;;;
2024/04/19 02:33:23;;;;;;;20.65;13.27;;;3.00;99.90;;;;;;5107507;27;20014;-84
2024/04/19 02:36:25;;;;;;;22.10;13.00;;;3.00;99.90;;;;;;5102850;28;20018;-84
2024/04/19 02:39:20;;;;;;;20.38;12.85;;;3.00;99.90;;;;;;5100959;27;20441;-84
2024/04/19 02:42:40;;;;;;;19.23;12.95;;;3.00;99.90;;;;;;5089945;27;20010;-83
2024/04/19 02:46:10;;;;;;;23.67;12.60;;;3.00;99.90;;;;;;5101006;27;20368;-81
2024/04/19 02:49:11;;;;;;;20.55;12.48;;;3.10;99.90;;;;;;5125790;27;20059;-83
2024/04/19 02:52:23;;;;;;;23.85;13.65;;;3.00;99.90;;;;;;5107582;27;20002;-80
2024/04/19 02:55:13;;;;;;;19.95;12.93;;;3.10;99.90;;;;;;5114289;27;20063;-80
2024/04/19 02:58:52;;;;;;;20.92;13.00;;;3.10;99.90;;;;;;5115525;27;20013;-82
2024/04/19 03:02:27;;;;;;;22.80;12.80;;;3.10;99.90;;;;;;5102679;27;20010;-83
2024/04/19 03:05:30;;;;;;;23.63;13.48;;;3.10;99.90;;;;;;5096001;27;20012;-84
2024/04/19 03:11:58;;;;;;;19.67;12.80;;;3.20;99.90;;;;;;5119222;27;20017;-82
2024/04/19 03:15:25;;;;;;;;;;;;;;;;;;;;;
2024/04/19 03:18:54;;;;;;;22.20;12.90;;;3.30;64.50;;;;;;5112377;27;20029;-81
2024/04/19 03:25:48;;;;;;;20.27;12.15;;;3.40;1.00;;;;;;5097893;27;20099;-82
2024/04/19 03:28:41;;;;;;;28.55;12.65;;;3.40;1.00;;;;;;5098780;27;20014;-80
2024/04/19 03:31:31;;;;;;;22.02;12.98;;;3.40;1.00;;;;;;5096604;27;20031;-84
2024/04/19 03:37:52;;;;;;;19.85;12.80;;;3.40;1.00;;;;;;5100059;27;20031;-84
2024/04/19 03:40:44;;;;;;;21.48;13.57;;;3.50;1.00;;;;;;5096757;27;20039;-83
2024/04/19 03:43:40;;;;;;;22.63;13.77;;;3.50;1.00;;;;;;5097364;27;20024;-83
2024/04/19 03:46:35;;;;;;;25.13;12.95;;;3.50;99.90;;;;;;5104822;27;20021;-83
2024/04/19 03:50:03;;;;;;;20.10;13.27;;;3.50;99.90;;;;;;5104217;27;20034;-85
2024/04/19 03:56:46;;;;;;;23.50;13.77;;;3.50;99.90;;;;;;5117739;27;20473;-81
2024/04/19 04:00:10;;;;;;;;;;;3.40;99.90;;;;;;5016913;28;20036;-81
2024/04/19 04:03:39;;;;;;;21.33;13.52;;;3.40;99.90;;;;;;5035042;28;19937;-83
2024/04/19 04:06:27;;;;;;;23.52;12.98;;;3.30;99.90;;;;;;5029942;28;20071;-79
2024/04/19 04:09:37;;;;;;;21.13;13.68;;;3.30;99.90;;;;;;5007845;28;20712;-83
2024/04/19 04:13:22;;;;;;;24.40;13.88;;;3.30;99.90;;;;;;5009970;28;20160;-82
2024/04/19 04:16:30;;;;;;;22.75;13.90;;;3.30;99.90;;;;;;5001760;28;20016;-83
2024/04/19 04:19:29;;;;;;;24.30;15.10;;;3.20;99.90;;;;;;4999502;28;20017;-83
2024/04/19 04:22:17;;;;;;;23.13;14.63;;;3.20;99.90;;;;;;5004052;28;20016;-79
2024/04/19 04:25:47;;;;;;;22.25;14.40;;;3.10;99.90;;;;;;5008048;28;20019;-83
2024/04/19 04:28:44;;;;;;;22.70;14.45;;;3.10;99.90;;;;;;5006095;28;20023;-82
2024/04/19 04:31:44;;;;;;;22.95;14.77;;;3.10;1.00;;;;;;5095247;27;20014;-83
2024/04/19 04:35:17;;;;;;;23.65;14.77;;;3.10;1.00;;;;;;5096065;27;20024;-81
2024/04/19 04:39:19;;;;;;;;;;;;;;;;;;;;;
2024/04/19 04:42:40;;;;;;;32.60;15.93;;;3.10;1.00;;;;;;5109679;27;20014;-80
2024/04/19 04:46:06;;;;;;;26.38;17.27;;;3.20;1.00;;;;;;5104030;27;20081;-80
2024/04/19 04:49:35;;;;;;;23.45;15.98;;;3.30;1.00;;;;;;5126960;27;20043;-82
2024/04/19 04:52:46;;;;;;;25.25;16.25;;;3.30;1.00;;;;;;5130913;27;20013;-83
2024/04/19 04:55:36;;;;;;;23.77;14.75;;;3.40;1.00;;;;;;5131746;27;20445;-83
2024/04/19 04:58:47;;;;;;;24.60;15.63;;;3.40;1.00;;;;;;5127448;27;20351;-82
2024/04/19 05:01:53;;;;;;;27.48;15.65;;;3.40;1.00;;;;;;5052468;27;20010;-82
2024/04/19 05:05:01;;;;;;;26.85;14.60;;;3.50;1.00;;;;;;5133012;27;20070;-83
2024/04/19 05:08:56;;;;;;;23.63;14.95;;;3.50;1.00;;;;;;5092331;27;20045;-83
2024/04/19 05:12:22;;;;;;;;;;;3.60;99.90;;;;;;5043725;28;20007;-82
2024/04/19 05:15:53;;;;;;;;;;;;;;;;;;;;;
2024/04/19 05:19:19;;;;;;;20.92;12.88;;;3.60;99.90;;;;;;5093840;27;20637;-83
2024/04/19 05:22:50;;;;;;;23.80;14.40;;;3.70;99.90;;;;;;5100754;27;20010;-83
2024/04/19 05:26:27;;;;;;;23.77;13.63;;;3.70;99.90;;;;;;5105939;27;20021;-82
2024/04/19 05:29:43;;;;;;;22.85;13.05;;;3.70;99.90;;;;;;5325657;22;20016;-82
2024/04/19 05:36:07;;;;;;;21.55;13.75;;;3.70;99.90;;;;;;5132257;27;20005;-82
2024/04/19 05:39:58;;;;;;;20.75;13.50;;;3.70;99.90;;;;;;5154827;27;20029;-83
2024/04/19 05:43:31;;;;;;;22.27;13.15;;;3.70;99.90;;;;;;5114581;27;20026;-80
2024/04/19 05:46:55;;;;;;;20.73;13.45;;;3.70;99.90;;;;;;5012966;28;20018;-81
2024/04/19 05:50:32;;;;;;;20.83;12.98;;;3.80;99.90;;;;;;5004878;28;20052;-81
2024/04/19 05:53:50;;;;;;;22.15;11.95;;;3.90;99.90;;;;;;4998253;28;20019;-78
2024/04/19 05:56:43;;;;;;;17.30;11.38;;;4.00;99.90;;;;;;5021974;28;20016;-82
2024/04/19 05:59:34;;;;;;;18.45;11.50;;;4.10;99.90;;;;;;5025929;28;20012;-81
2024/04/19 06:02:22;;;;;;;18.80;11.15;;;4.20;99.90;;;;;;5024514;28;20000;-79
2024/04/19 06:05:17;;;;;;;17.98;10.35;;;4.30;99.90;;;;;;5003770;28;20001;-83
2024/04/19 06:08:07;;;;;;;20.15;12.73;;;4.30;36.10;;;;;;5017892;28;20004;-82
2024/04/19 06:10:55;;;;;;;17.13;10.80;;;4.40;1.00;;;;;;5017969;28;20026;-82
2024/04/19 06:14:14;;;;;;;17.65;9.40;;;4.50;1.00;;;;;;5003522;28;20008;-84
2024/04/19 06:17:13;;;;;;;12.02;8.20;;;4.60;1.00;;;;;;5018315;28;20008;-81
2024/04/19 06:20:02;;;;;;;14.82;8.40;;;4.60;1.00;;;;;;5013295;28;20024;-82
2024/04/19 06:22:49;;;;;;;15.18;7.63;;;4.70;1.00;;;;;;5116892;27;20053;-82
2024/04/19 06:25:36;;;;;;;12.00;8.00;;;4.70;99.90;;;;;;5091646;28;20029;-82
2024/04/19 06:28:24;;;;;;;9.93;7.30;;;4.80;99.90;;;;;;5095534;27;20090;-81
2024/04/19 06:31:18;;;;;;;;;;;4.80;99.90;;;;;;5100807;28;20014;-79
2024/04/19 06:34:07;;;;;;;13.68;7.35;;;4.90;99.90;;;;;;5104972;28;19936;-82
2024/04/19 06:36:54;;;;;;;13.13;7.65;;;5.00;99.90;;;;;;5095508;28;20006;-80
2024/04/19 06:39:44;;;;;;;14.15;8.55;;;5.00;99.90;;;;;;5095953;27;20022;-80
2024/04/19 06:42:57;;;;;;;11.90;8.45;;;5.10;99.90;;;;;;5102003;28;20963;-80
2024/04/19 06:45:46;;;;;;;13.32;7.53;;;5.20;99.90;;;;;;5089040;28;20240;-81
2024/04/19 06:48:35;;;;;;;10.82;7.05;;;5.20;99.90;;;;;;5100574;27;20025;-80
2024/04/19 06:51:23;;;;;;;12.07;8.20;;;5.20;99.90;;;;;;5135530;27;20073;-82
2024/04/19 06:54:43;;;;;;;10.80;7.78;;;5.30;99.90;;;;;;5100622;28;20014;-87
2024/04/19 06:57:33;;;;;;;15.60;9.05;;;5.30;99.90;;;;;;5090427;27;20007;-82
2024/04/19 07:01:16;;;;;;;9.65;7.20;;;5.40;99.90;;;;;;5097783;27;20087;-80
2024/04/19 07:04:31;;;;;;;12.70;7.57;;;5.40;51.80;;;;;;5094549;28;20474;-81
2024/04/19 07:17:14;;;;;;;;;;;;;;;;;;;;;
2024/04/19 07:20:45;;;;;;;;;;;;;;;;;;;;;
2024/04/19 07:24:37;;;;;;;15.65;10.15;;;5.00;99.90;;;;;;5027129;28;20016;-81
2024/04/19 07:27:36;;;;;;;14.73;9.98;;;5.00;99.90;;;;;;5113615;27;20013;-82
2024/04/19 07:30:38;;;;;;;18.48;10.23;;;4.80;99.90;;;;;;5102973;27;20010;-81
2024/04/19 07:33:49;;;;;;;18.17;11.55;;;4.70;99.90;;;;;;5113757;28;20010;-82
2024/04/19 07:36:44;;;;;;;19.30;11.35;;;4.60;99.90;;;;;;5113001;27;20017;-82
2024/04/19 07:39:42;;;;;;;16.85;10.80;;;4.50;99.90;;;;;;5130742;27;20022;-79
2024/04/19 07:42:33;;;;;;;15.40;10.63;;;4.40;1.00;;;;;;5089132;27;20013;-78
2024/04/19 07:45:31;;;;;;;18.25;11.02;;;4.40;1.00;;;;;;5112251;27;20010;-78
2024/04/19 07:48:31;;;;;;;19.83;12.23;;;4.40;1.00;;;;;;5103154;27;20584;-80
2024/04/19 07:51:35;;;;;;;;;;;;;;;;;;;;;
2024/04/19 07:54:48;;;;;;;17.02;10.93;;;4.50;47.90;;;;;;5109918;28;20013;-85
2024/04/19 08:01:02;;;;;;;16.67;11.50;;;4.40;99.90;;;;;;5055067;28;20297;-82
2024/04/19 08:04:20;;;;;;;16.27;10.63;;;4.40;99.90;;;;;;5050787;28;20019;-81
2024/04/19 08:07:36;;;;;;;;;;;;;;;;;;;;;
2024/04/19 08:11:39;;;;;;;16.55;9.77;;;4.40;99.90;;;;;;5040828;28;20018;-81
2024/04/19 08:15:29;;;;;;;13.70;8.95;;;4.40;99.90;;;;;;5075395;28;20129;-81
2024/04/19 08:22:10;;;;;;;;;;;;;;;;;;;;;
2024/04/19 08:26:18;;;;;;;;;;;;;;;;;;;;;
2024/04/19 08:30:05;;;;;;;12.70;8.65;;;4.30;99.90;;;;;;4981824;28;20013;-81
2024/04/19 08:33:15;;;;;;;13.32;8.73;;;4.30;99.90;;;;;;4993333;28;20053;-82
2024/04/19 08:41:08;;;;;;;10.52;8.65;;;4.30;1.00;;;;;;4838933;28;20027;-83
2024/04/19 08:44:53;;;;;;;;;;;;;;;;;;;;;
2024/04/19 08:56:52;;;;;;;11.07;8.75;;;4.00;1.00;;;;;;5031089;28;20028;-83
2024/04/19 09:00:26;;;;;;;14.15;9.43;;;4.00;1.00;;;;;;4957995;28;20029;-84
2024/04/19 09:04:09;;;;;;;12.65;9.13;;;4.00;94.80;;;;;;5007926;28;20062;-84
2024/04/19 09:07:36;;;;;;;14.65;10.18;;;4.00;99.90;;;;;;4914890;29;20092;-82
2024/04/19 09:14:58;;;;;;;12.27;9.00;;;3.90;99.90;;;;;;5147662;27;20024;-87
2024/04/19 09:31:09;;;;;;;17.30;11.40;;;3.90;99.90;;;;;;4949998;28;20466;-84
2024/04/19 09:34:05;;;;;;;17.08;10.45;;;3.90;99.90;;;;;;4949459;28;20062;-81
2024/04/19 09:37:09;;;;;;;14.57;11.02;;;4.00;1.00;;;;;;4953910;28;20017;-83
2024/04/19 09:44:19;;;;;;;15.27;10.45;;;3.90;99.90;;;;;;4984871;28;20018;-82
2024/04/19 09:51:51;;;;;;;19.00;12.25;;;3.90;1.00;;;;;;5017123;28;20061;-81
2024/04/19 09:59:14;;;;;;;22.10;12.32;;;3.80;1.00;;;;;;5003587;28;20023;-83
2024/04/19 10:12:02;;;;;;;18.63;12.80;;;4.10;73.40;;;;;;5689128;22;20036;-79
2024/04/19 10:20:10;;;;;;;;;;;;;;;;;;;;;
2024/04/19 10:46:58;;;;;;;;;;;;;;;;;;;;;
2024/04/19 10:55:17;;;;;;;13.80;9.85;;;4.60;99.90;;;;;;5082191;27;20012;-82
2024/04/19 11:13:57;;;;;;;12.35;8.27;;;4.70;1.00;;;;;;5157658;27;20731;-80
2024/04/19 11:17:03;;;;;;;10.00;7.75;;;4.60;1.00;;;;;;5156251;27;20021;-81
2024/04/19 11:20:43;;;;;;;10.93;7.97;;;4.50;1.00;;;;;;5131324;27;20081;-81
2024/04/19 11:24:31;;;;;;;8.70;7.10;;;4.50;1.00;;;;;;5118312;27;20048;-84
2024/04/19 11:28:11;;;;;;;10.52;7.32;;;4.40;1.00;;;;;;5157191;27;20005;-86
2024/04/19 11:31:45;;;;;;;9.18;7.07;;;4.50;1.00;;;;;;5068525;28;20025;-84
2024/04/19 11:35:28;;;;;;;7.70;5.90;;;4.40;1.00;;;;;;5066941;28;20069;-82
2024/04/19 11:38:38;;;;;;;8.27;5.88;;;4.40;1.00;;;;;;5063861;28;20018;-82
2024/04/19 11:41:39;;;;;;;7.88;6.68;;;4.40;1.00;;;;;;5035962;28;20023;-83
2024/04/19 11:45:51;;;;;;;;;;;;;;;;;;;;;
2024/04/19 11:49:18;;;;;;;7.00;5.28;;;4.40;99.90;;;;;;5026321;28;20188;-82
2024/04/19 11:53:33;;;;;;;7.40;5.70;;;4.30;99.90;;;;;;5010611;28;20026;-85
2024/04/19 11:57:17;;;;;;;8.48;6.32;;;4.30;99.90;;;;;;5094901;28;20013;-86
2024/04/19 12:01:05;;;;;;;8.13;6.18;;;4.30;99.90;;;;;;5101213;27;20062;-85
2024/04/19 12:04:06;;;;;;;8.60;6.43;;;4.20;99.90;;;;;;5099473;27;20017;-84
2024/04/19 12:11:02;;;;;;;6.25;5.53;;;4.20;99.90;;;;;;5164816;27;20134;-83
2024/04/19 12:14:48;;;;;;;;;;;;;;;;;;;;;
2024/04/19 12:18:34;;;;;;;7.03;5.97;;;4.20;99.90;;;;;;5000403;28;20024;-85
2024/04/19 12:22:25;;;;;;;6.45;5.63;;;4.20;99.90;;;;;;4942964;28;20025;-85
2024/04/19 12:34:13;;;;;;;;;;;;;;;;;;;;;
2024/04/19 12:37:25;;;;;;;6.45;5.57;;;4.10;99.90;;;;;;5128253;27;20346;-82
2024/04/19 12:40:58;;;;;;;7.43;5.95;;;4.10;99.90;;;;;;5103367;28;20006;-83
2024/04/19 12:44:03;;;;;;;;;;;4.20;99.90;;;;;;5112297;27;20366;-82
2024/04/19 12:47:07;;;;;;;6.13;4.80;;;4.20;99.90;;;;;;5105818;27;19941;-79
2024/04/19 12:50:22;;;;;;;7.90;5.97;;;4.20;99.90;;;;;;5115964;27;20073;-84
2024/04/19 12:54:02;;;;;;;;;;;;;;;;;;;;;
2024/04/19 12:57:03;;;;;;;6.97;5.63;;;4.30;99.90;;;;;;5138246;27;21062;-83
2024/04/19 13:00:04;;;;;;;6.25;5.18;;;4.30;99.90;;;;;;5111628;27;20006;-82
2024/04/19 13:03:42;;;;;;;6.68;5.15;;;4.30;99.90;;;;;;5121933;27;20016;-81
2024/04/19 13:07:23;;;;;;;6.30;5.03;;;4.40;99.90;;;;;;5090185;28;20017;-80
2024/04/19 13:11:26;;;;;;;7.95;5.40;;;4.40;99.90;;;;;;5095360;28;20089;-81
2024/04/19 13:15:29;;;;;;;6.57;5.32;;;4.40;99.90;;;;;;5104255;27;20438;-81
2024/04/19 13:18:22;;;;;;;6.07;5.00;;;4.40;99.90;;;;;;5127702;27;20062;-83
2024/04/19 13:21:10;;;;;;;5.47;4.97;;;4.40;99.90;;;;;;5116806;27;20021;-81
2024/04/19 13:24:06;;;;;;;4.50;4.03;;;4.40;99.90;;;;;;5106322;27;20018;-84
2024/04/19 13:27:02;;;;;;;5.60;4.60;;;4.30;99.90;;;;;;5106330;27;20009;-81
2024/04/19 13:29:51;;;;;;;8.02;4.20;;;4.30;99.90;;;;;;5130158;27;20006;-81
2024/04/19 13:33:41;;;;;;;4.85;4.00;;;4.30;99.90;;;;;;5141761;27;20045;-81
2024/04/19 13:37:49;;;;;;;4.57;4.18;;;4.30;99.90;;;;;;5107339;27;20014;-76
2024/04/19 13:41:06;;;;;;;;;;;;;;;;;;;;;
2024/04/19 13:48:22;;;;;;;4.75;3.85;;;4.30;1.00;;;;;;5103702;27;20021;-81
2024/04/19 13:51:45;;;;;;;4.15;3.55;;;4.30;1.00;;;;;;5116143;27;20018;-80
2024/04/19 13:54:40;;;;;;;4.10;3.70;;;4.30;1.00;;;;;;5107977;27;20009;-76
2024/04/19 13:58:03;;;;;;;4.50;3.40;;;4.30;1.00;;;;;;5110652;28;20010;-84
2024/04/19 14:01:00;;;;;;;5.07;3.20;;;4.30;1.00;;;;;;5122028;27;20547;-82
2024/04/19 14:04:19;;;;;;;3.80;3.30;;;4.30;1.00;;;;;;5094202;27;20018;-82
2024/04/19 14:07:07;;;;;;;4.15;3.75;;;4.30;1.00;;;;;;5099988;27;20028;-84
2024/04/19 14:10:00;;;;;;;3.63;3.33;;;4.30;1.00;;;;;;5119217;27;20069;-79
2024/04/19 14:12:57;;;;;;;4.22;3.30;;;4.30;1.00;;;;;;5112520;28;20020;-80
2024/04/19 14:16:01;;;;;;;4.82;2.83;;;4.40;1.00;;;;;;5095890;28;20484;-81
2024/04/19 14:19:02;;;;;;;3.80;3.17;;;4.40;1.00;;;;;;5108960;27;20010;-77
2024/04/19 14:21:59;;;;;;;2.90;2.60;;;4.50;88.20;;;;;;5101123;28;20149;-82
2024/04/19 14:25:01;;;;;;;3.28;2.60;;;4.40;1.00;;;;;;5095669;28;20077;-81
2024/04/19 14:27:59;;;;;;;2.90;2.60;;;4.30;1.00;;;;;;5091366;27;20014;-81
2024/04/19 14:31:26;;;;;;;2.58;2.38;;;4.30;1.00;;;;;;5110380;28;20033;-83
2024/04/19 14:37:33;;;;;;;3.50;3.20;;;4.30;99.90;;;;;;5106494;27;20006;-81
2024/04/19 14:40:21;;;;;;;4.13;3.00;;;4.30;99.90;;;;;;5103649;27;20006;-80
2024/04/19 14:43:15;;;;;;;2.80;2.42;;;4.30;99.90;;;;;;5107980;27;20019;-83
2024/04/19 14:46:50;;;;;;;2.67;2.42;;;4.30;99.90;;;;;;5110011;27;20021;-83
2024/04/19 14:50:01;;;;;;;3.50;2.53;;;4.20;99.90;;;;;;5099258;27;20005;-83
2024/04/19 14:52:52;;;;;;;2.72;2.47;;;4.20;34.90;;;;;;5099548;27;20402;-82
2024/04/19 14:56:03;;;;;;;3.03;2.80;;;4.20;23.00;;;;;;5096448;27;20065;-81
2024/04/19 14:58:54;;;;;;;3.88;2.83;;;4.20;99.90;;;;;;5123181;27;20067;-81
2024/04/19 15:02:12;;;;;;;2.92;2.70;;;4.20;99.90;;;;;;5090296;28;20028;-80
2024/04/19 15:05:33;;;;;;;;;;;;;;;;;;;;;
2024/04/19 15:08:53;;;;;;;3.67;2.83;;;4.20;99.90;;;;;;5099462;27;20826;-83
2024/04/19 15:11:57;;;;;;;3.80;3.17;;;4.20;99.90;;;;;;5104974;27;20006;-78
2024/04/19 15:15:27;;;;;;;3.20;2.85;;;4.20;99.90;;;;;;5115197;27;20329;-80
2024/04/19 15:18:49;;;;;;;5.28;2.63;;;4.20;96.90;;;;;;5106661;27;20030;-81
2024/04/19 15:22:04;;;;;;;2.47;2.28;;;4.20;99.90;;;;;;5100437;27;20020;-76
2024/04/19 15:24:57;;;;;;;3.22;2.30;;;4.10;35.30;;;;;;5102644;27;20044;-81
2024/04/19 15:27:53;;;;;;;3.60;3.30;;;4.20;99.90;;;;;;5103544;27;20037;-82
2024/04/19 15:30:44;;;;;;;2.58;2.33;;;4.10;99.90;;;;;;5114589;28;20344;-82
2024/04/19 15:33:50;;;;;;;3.53;2.75;;;4.20;99.90;;;;;;5108102;28;20029;-78
2024/04/19 15:37:07;;;;;;;3.92;2.75;;;4.20;99.90;;;;;;5129889;27;20017;-81
2024/04/19 15:40:22;;;;;;;3.40;2.67;;;4.20;99.90;;;;;;5102987;27;20010;-81
2024/04/19 15:43:15;;;;;;;3.30;2.88;;;4.20;99.90;;;;;;5105177;27;20006;-84
2024/04/19 15:46:24;;;;;;;2.75;2.50;;;4.10;99.90;;;;;;5102919;28;20066;-82
2024/04/19 15:53:01;;;;;;;2.72;2.53;;;4.20;99.90;;;;;;5049209;28;20011;-85
2024/04/19 15:56:36;;;;;;;3.08;2.78;;;4.10;99.90;;;;;;5069515;28;20020;-78
2024/04/19 15:59:38;;;;;;;4.80;4.03;;;4.10;99.90;;;;;;5065153;28;20051;-77
2024/04/19 16:02:44;;;;;;;3.58;2.40;;;4.10;99.90;;;;;;5096169;28;20014;-77
2024/04/19 16:05:41;;;;;;;3.92;2.92;;;4.00;99.90;;;;;;5101787;27;20009;-82
2024/04/19 16:09:05;;;;;;;3.58;3.28;;;4.00;99.90;;;;;;5099898;27;20016;-79
2024/04/19 16:12:15;;;;;;;3.83;3.30;;;4.00;1.00;;;;;;5107241;28;20010;-81
2024/04/19 16:15:26;;;;;;;3.47;2.95;;;4.10;39.30;;;;;;5093244;28;20024;-81
2024/04/19 16:18:31;;;;;;;4.75;3.10;;;4.10;30.40;;;;;;5087366;28;20015;-79
2024/04/19 16:21:53;;;;;;;3.25;2.95;;;4.10;64.80;;;;;;5109501;28;20045;-80
2024/04/19 16:24:49;;;;;;;4.85;3.20;;;4.10;99.90;;;;;;5115312;27;20013;-82
2024/04/19 16:27:57;;;;;;;3.17;2.88;;;4.20;99.90;;;;;;5111504;28;20010;-80
2024/04/19 16:31:00;;;;;;;2.90;2.70;;;4.20;99.90;;;;;;5095001;27;20017;-80
2024/04/19 16:33:55;;;;;;;4.00;2.88;;;4.30;99.90;;;;;;5120699;27;20077;-83
2024/04/19 16:37:33;;;;;;;2.88;2.55;;;4.30;99.90;;;;;;5121812;27;20014;-80
2024/04/19 16:40:33;;;;;;;4.50;3.03;;;4.30;99.90;;;;;;5096519;28;20014;-80
2024/04/19 16:43:23;;;;;;;3.20;2.85;;;4.20;99.90;;;;;;5102510;27;20356;-85
2024/04/19 16:51:06;;;;;;;3.60;3.30;;;4.10;99.90;;;;;;5165759;27;20004;-82
2024/04/19 16:55:32;;;;;;;;;;;;;;;;;;;;;
2024/04/19 16:58:44;;;;;;;3.55;2.80;;;4.10;99.90;;;;;;5118007;27;20031;-82
2024/04/19 17:01:39;;;;;;;3.85;2.85;;;4.10;99.90;;;;;;5101192;27;20021;-80
2024/04/19 17:04:34;;;;;;;4.82;2.58;;;4.10;1.00;;;;;;5097476;27;20014;-79
2024/04/19 17:07:48;;;;;;;5.63;4.22;;;4.10;1.00;;;;;;5093537;27;20072;-82
2024/04/19 17:11:28;;;;;;;3.08;2.75;;;4.10;1.00;;;;;;5110392;27;20020;-83
2024/04/19 17:14:25;;;;;;;4.00;3.28;;;4.10;1.00;;;;;;5092995;27;20025;-80
2024/04/19 17:17:18;;;;;;;3.20;2.90;;;4.10;1.00;;;;;;5100520;27;20010;-82
2024/04/19 17:21:00;;;;;;;5.93;4.18;;;4.20;1.00;;;;;;5090968;28;20098;-79
2024/04/19 17:24:38;;;;;;;1.90;1.80;;;4.20;1.00;;;;;;5111632;27;20009;-79
2024/04/19 17:28:08;;;;;;;2.97;2.50;;;4.20;1.00;;;;;;5102770;27;20017;-84
2024/04/19 17:31:34;;;;;;;2.40;2.20;;;4.30;1.00;;;;;;5103162;28;20010;-82
2024/04/19 17:35:23;;;;;;;2.47;1.60;;;4.30;99.90;;;;;;5057821;27;20034;-80
2024/04/19 17:39:14;;;;;;;1.80;1.33;;;4.30;99.90;;;;;;5112617;27;20006;-81
2024/04/19 17:42:35;;;;;;;1.60;1.50;;;4.40;99.90;;;;;;5099690;27;20010;-82
2024/04/19 17:45:56;;;;;;;1.70;1.60;;;4.40;99.90;;;;;;5105490;27;20064;-82
2024/04/19 17:48:48;;;;;;;1.48;1.27;;;4.40;99.90;;;;;;5125670;27;20049;-78
2024/04/19 17:55:14;;;;;;;2.67;1.60;;;4.40;41.50;;;;;;5098724;27;20006;-83
2024/04/19 17:58:03;;;;;;;3.88;2.10;;;4.40;1.00;;;;;;5115301;27;20013;-83
2024/04/19 18:01:04;;;;;;;2.15;1.92;;;4.40;1.00;;;;;;5114069;27;20295;-81
2024/04/19 18:03:52;;;;;;;2.83;1.92;;;4.40;1.00;;;;;;5097314;28;20002;-84
2024/04/19 18:06:41;;;;;;;1.92;1.67;;;4.40;99.90;;;;;;5096752;27;20132;-81
2024/04/19 18:09:30;;;;;;;1.70;1.60;;;4.30;99.90;;;;;;5136180;27;20021;-81
2024/04/19 18:12:18;;;;;;;1.83;1.73;;;4.30;99.90;;;;;;5077325;28;20006;-84
2024/04/19 18:15:07;;;;;;;1.95;1.73;;;4.20;99.90;;;;;;5133178;27;20009;-82
2024/04/19 18:18:04;;;;;;;3.03;1.70;;;4.20;99.90;;;;;;5109107;27;20050;-82
2024/04/19 18:20:53;;;;;;;1.70;1.60;;;4.20;99.90;;;;;;5102070;27;20368;-84
2024/04/19 18:23:42;;;;;;;2.88;1.83;;;4.20;99.90;;;;;;5109260;28;20010;-82
2024/04/19 18:26:33;;;;;;;1.77;1.57;;;4.20;99.90;;;;;;5104253;27;20197;-85
2024/04/19 18:29:24;;;;;;;2.40;1.92;;;4.20;99.90;;;;;;5102354;27;20018;-85
2024/04/19 18:32:11;;;;;;;3.13;2.28;;;4.10;99.90;;;;;;5100435;27;20010;-85
2024/04/19 18:35:03;;;;;;;2.65;2.38;;;4.10;99.90;;;;;;5100472;27;20532;-85
2024/04/19 18:37:52;;;;;;;;;;;4.20;99.90;;;;;;5102390;27;20006;-84
2024/04/19 18:40:45;;;;;;;5.97;3.70;;;4.10;99.90;;;;;;5103915;27;19958;-84
2024/04/19 18:43:41;;;;;;;3.97;2.20;;;4.20;99.90;;;;;;5105211;27;20031;-86
2024/04/19 18:46:38;;;;;;;1.80;1.70;;;4.30;99.90;;;;;;5109631;27;20002;-83
2024/04/19 18:49:26;;;;;;;3.30;2.38;;;4.30;99.90;;;;;;5120684;27;20016;-85
2024/04/19 18:52:15;;;;;;;2.75;2.17;;;4.30;99.90;;;;;;5109013;27;20021;-86
2024/04/19 18:55:12;;;;;;;2.83;1.90;;;4.40;99.90;;;;;;5117111;27;20359;-81
2024/04/19 18:57:59;;;;;;;8.00;2.15;;;4.40;99.90;;;;;;5099722;27;20010;-84
2024/04/19 19:00:51;;;;;;;4.57;2.28;;;4.20;99.90;;;;;;5096768;28;20446;-80
2024/04/19 19:03:42;;;;;;;4.18;1.95;;;3.60;99.90;;;;;;5127069;27;21476;-84
2024/04/19 19:06:31;;;;;;;6.82;3.00;;;3.20;99.90;;;;;;5113563;27;20028;-83
2024/04/19 19:09:21;;;;;;;5.20;2.55;;;3.00;99.90;;;;;;5086916;27;20006;-79
2024/04/19 19:12:09;;;;;;;2.38;2.17;;;3.00;1.00;;;;;;5133451;27;20014;-81
2024/04/19 19:14:57;;;;;;;5.72;2.60;;;3.00;99.90;;;;;;5113126;27;20014;-81
2024/04/19 19:17:48;;;;;;;6.75;2.35;;;3.10;99.90;;;;;;5095620;28;20095;-83
2024/04/19 19:21:13;;;;;;;9.85;2.45;;;3.10;1.00;;;;;;5096828;28;20006;-83
2024/04/19 19:24:04;;;;;;;5.72;2.45;;;3.10;74.30;;;;;;5103299;27;20029;-83
2024/04/19 19:26:53;;;;;;;6.20;2.67;;;3.10;99.90;;;;;;5108347;28;20010;-81
2024/04/19 19:29:41;;;;;;;4.57;2.15;;;3.10;99.90;;;;;;5092811;28;20018;-84
2024/04/19 19:32:29;;;;;;;6.00;2.67;;;3.10;1.00;;;;;;5111973;27;20368;-81
2024/04/19 19:35:17;;;;;;;6.90;3.13;;;3.20;99.90;;;;;;5092408;27;20046;-84
2024/04/19 19:38:05;;;;;;;6.75;3.50;;;3.20;99.90;;;;;;5090228;27;20016;-82
2024/04/19 19:40:54;;;;;;;7.47;2.92;;;3.20;99.90;;;;;;5098943;28;20029;-84
2024/04/19 19:43:43;;;;;;;8.00;2.85;;;3.20;1.00;;;;;;5096194;28;20541;-80
2024/04/19 19:46:31;;;;;;;5.30;2.50;;;3.20;99.90;;;;;;5092170;27;20025;-80
2024/04/19 19:49:22;;;;;;;5.82;2.75;;;3.10;99.90;;;;;;5092452;27;20097;-82
2024/04/19 19:52:11;;;;;;;7.25;2.70;;;3.10;99.90;;;;;;5096495;27;20021;-82
2024/04/19 19:55:00;;;;;;;3.83;2.50;;;3.00;1.00;;;;;;5086803;27;20411;-82
2024/04/19 19:57:52;;;;;;;2.80;2.20;;;3.00;6.30;;;;;;5097081;28;20013;-77
2024/04/19 20:06:57;;;;;;;6.38;3.10;;;3.00;1.00;;;;;;5092198;27;20046;-84
2024/04/19 20:09:45;;;;;;;7.78;2.75;;;3.00;1.00;;;;;;5092381;27;20703;-81
2024/04/19 20:13:05;;;;;;;4.50;2.40;;;3.00;82.20;;;;;;5127125;27;20071;-80
2024/04/19 20:16:18;;;;;;;2.60;2.20;;;2.90;99.90;;;;;;5111312;27;20042;-81
2024/04/19 20:19:17;;;;;;;4.65;2.22;;;3.00;99.90;;;;;;5103471;27;20022;-79
2024/04/19 20:22:12;;;;;;;3.97;2.10;;;3.00;99.90;;;;;;5092965;28;20024;-82
2024/04/19 20:25:00;;;;;;;7.22;2.70;;;3.00;1.00;;;;;;5094344;27;20025;-80